sensor_id;sensor_type;location;lat;lon;timestamp;temperature;humidity
9824;DHT22;4951;50.778;7.196;2023-09-19T00:01:09;15.30;1.00
9824;DHT22;4951;50.778;7.196;2023-09-19T00:03:38;15.30;1.00
9824;DHT22;4951;50.778;7.196;2023-09-19T00:06:13;15.30;1.00
9824;DHT22;4951;50.778;7.196;2023-09-19T00:08:41;15.30;1.00
9824;DHT22;4951;50.778;7.196;2023-09-19T00:11:10;15.30;1.00
9824;DHT22;4951;50.778;7.196;2023-09-19T00:13:38;15.30;1.00
9824;DHT22;4951;50.778;7.196;2023-09-19T00:16:10;15.30;1.00
9824;DHT22;4951;50.778;7.196;2023-09-19T00:18:38;15.30;1.00
9824;DHT22;4951;50.778;7.196;2023-09-19T00:21:06;15.30;1.00
9824;DHT22;4951;50.778;7.196;2023-09-19T00:23:36;15.30;1.00
9824;DHT22;4951;50.778;7.196;2023-09-19T00:26:03;15.20;1.00
9824;DHT22;4951;50.778;7.196;2023-09-19T00:28:32;15.20;1.00
9824;DHT22;4951;50.778;7.196;2023-09-19T00:30:59;15.20;1.00
9824;DHT22;4951;50.778;7.196;2023-09-19T00:33:32;15.20;1.00
9824;DHT22;4951;50.778;7.196;2023-09-19T00:36:00;15.20;1.00
9824;DHT22;4951;50.778;7.196;2023-09-19T00:38:31;15.20;1.00
9824;DHT22;4951;50.778;7.196;2023-09-19T00:41:00;15.30;1.00
9824;DHT22;4951;50.778;7.196;2023-09-19T00:43:31;15.30;1.00
9824;DHT22;4951;50.778;7.196;2023-09-19T00:46:00;15.30;1.00
9824;DHT22;4951;50.778;7.196;2023-09-19T00:48:29;15.30;1.00
9824;DHT22;4951;50.778;7.196;2023-09-19T00:51:02;15.30;1.00
9824;DHT22;4951;50.778;7.196;2023-09-19T00:53:31;15.20;1.00
9824;DHT22;4951;50.778;7.196;2023-09-19T00:56:03;15.20;1.00
9824;DHT22;4951;50.778;7.196;2023-09-19T00:58:34;15.20;1.00
9824;DHT22;4951;50.778;7.196;2023-09-19T01:01:04;15.20;1.00
9824;DHT22;4951;50.778;7.196;2023-09-19T01:03:37;15.20;1.00
9824;DHT22;4951;50.778;7.196;2023-09-19T01:06:08;15.20;1.00
9824;DHT22;4951;50.778;7.196;2023-09-19T01:08:35;15.20;1.00
9824;DHT22;4951;50.778;7.196;2023-09-19T01:11:13;15.20;1.00
9824;DHT22;4951;50.778;7.196;2023-09-19T01:13:52;15.20;1.00
9824;DHT22;4951;50.778;7.196;2023-09-19T01:16:32;15.20;1.00
9824;DHT22;4951;50.778;7.196;2023-09-19T01:19:11;15.10;1.00
9824;DHT22;4951;50.778;7.196;2023-09-19T01:21:51;15.20;1.00
9824;DHT22;4951;50.778;7.196;2023-09-19T01:28:10;15.30;1.00
9824;DHT22;4951;50.778;7.196;2023-09-19T01:30:45;15.30;1.00
9824;DHT22;4951;50.778;7.196;2023-09-19T01:33:14;15.30;1.00
9824;DHT22;4951;50.778;7.196;2023-09-19T01:35:42;15.30;1.00
9824;DHT22;4951;50.778;7.196;2023-09-19T01:38:16;15.40;1.00
9824;DHT22;4951;50.778;7.196;2023-09-19T01:40:55;15.40;1.00
9824;DHT22;4951;50.778;7.196;2023-09-19T01:43:30;15.40;1.00
9824;DHT22;4951;50.778;7.196;2023-09-19T01:46:07;15.50;1.00
9824;DHT22;4951;50.778;7.196;2023-09-19T01:48:40;15.50;1.00
9824;DHT22;4951;50.778;7.196;2023-09-19T01:51:17;15.50;1.00
9824;DHT22;4951;50.778;7.196;2023-09-19T01:53:51;15.50;1.00
9824;DHT22;4951;50.778;7.196;2023-09-19T01:56:30;15.50;1.00
9824;DHT22;4951;50.778;7.196;2023-09-19T01:59:05;15.50;1.00
9824;DHT22;4951;50.778;7.196;2023-09-19T02:01:39;15.50;1.00
9824;DHT22;4951;50.778;7.196;2023-09-19T02:04:11;15.50;1.00
9824;DHT22;4951;50.778;7.196;2023-09-19T02:06:40;15.50;1.00
9824;DHT22;4951;50.778;7.196;2023-09-19T02:09:08;15.50;1.00
9824;DHT22;4951;50.778;7.196;2023-09-19T02:11:35;15.60;1.00
9824;DHT22;4951;50.778;7.196;2023-09-19T02:14:05;15.60;1.00
9824;DHT22;4951;50.778;7.196;2023-09-19T02:16:34;15.60;1.00
9824;DHT22;4951;50.778;7.196;2023-09-19T02:19:06;15.60;99.90
9824;DHT22;4951;50.778;7.196;2023-09-19T02:21:35;15.60;99.90
9824;DHT22;4951;50.778;7.196;2023-09-19T02:24:05;15.60;99.90
9824;DHT22;4951;50.778;7.196;2023-09-19T02:26:36;15.60;99.90
9824;DHT22;4951;50.778;7.196;2023-09-19T02:29:06;15.50;99.90
9824;DHT22;4951;50.778;7.196;2023-09-19T02:31:36;15.50;99.90
9824;DHT22;4951;50.778;7.196;2023-09-19T02:34:09;15.50;48.20
9824;DHT22;4951;50.778;7.196;2023-09-19T02:36:37;15.40;49.50
9824;DHT22;4951;50.778;7.196;2023-09-19T02:39:05;15.30;40.00
9824;DHT22;4951;50.778;7.196;2023-09-19T02:41:34;15.20;1.00
9824;DHT22;4951;50.778;7.196;2023-09-19T02:44:01;15.20;1.00
9824;DHT22;4951;50.778;7.196;2023-09-19T02:46:33;15.10;1.00
9824;DHT22;4951;50.778;7.196;2023-09-19T02:49:03;15.10;1.00
9824;DHT22;4951;50.778;7.196;2023-09-19T02:51:35;15.10;1.00
9824;DHT22;4951;50.778;7.196;2023-09-19T02:54:06;15.10;1.00
9824;DHT22;4951;50.778;7.196;2023-09-19T02:56:33;15.10;1.00
9824;DHT22;4951;50.778;7.196;2023-09-19T02:59:01;15.10;1.00
9824;DHT22;4951;50.778;7.196;2023-09-19T03:01:30;15.10;1.00
9824;DHT22;4951;50.778;7.196;2023-09-19T03:03:58;15.10;1.00
9824;DHT22;4951;50.778;7.196;2023-09-19T03:06:27;15.10;1.00
9824;DHT22;4951;50.778;7.196;2023-09-19T03:08:58;15.00;1.00
9824;DHT22;4951;50.778;7.196;2023-09-19T03:11:26;15.00;1.00
9824;DHT22;4951;50.778;7.196;2023-09-19T03:13:58;15.00;1.00
9824;DHT22;4951;50.778;7.196;2023-09-19T03:16:26;14.90;1.00
9824;DHT22;4951;50.778;7.196;2023-09-19T03:18:58;14.90;1.00
9824;DHT22;4951;50.778;7.196;2023-09-19T03:21:28;14.80;1.00
9824;DHT22;4951;50.778;7.196;2023-09-19T03:23:59;14.80;1.00
9824;DHT22;4951;50.778;7.196;2023-09-19T03:26:27;14.80;1.00
9824;DHT22;4951;50.778;7.196;2023-09-19T03:28:59;14.70;7.30
9824;DHT22;4951;50.778;7.196;2023-09-19T03:31:29;14.70;45.00
9824;DHT22;4951;50.778;7.196;2023-09-19T03:33:57;14.70;99.90
9824;DHT22;4951;50.778;7.196;2023-09-19T03:36:26;14.70;99.90
9824;DHT22;4951;50.778;7.196;2023-09-19T03:38:56;14.70;99.90
9824;DHT22;4951;50.778;7.196;2023-09-19T03:41:24;14.80;99.90
9824;DHT22;4951;50.778;7.196;2023-09-19T03:43:52;14.80;99.60
9824;DHT22;4951;50.778;7.196;2023-09-19T03:46:20;14.80;32.80
9824;DHT22;4951;50.778;7.196;2023-09-19T03:48:48;14.80;5.30
9824;DHT22;4951;50.778;7.196;2023-09-19T03:51:18;14.80;17.60
9824;DHT22;4951;50.778;7.196;2023-09-19T03:53:46;14.80;23.30
9824;DHT22;4951;50.778;7.196;2023-09-19T03:56:16;14.70;52.60
9824;DHT22;4951;50.778;7.196;2023-09-19T03:58:45;14.60;99.90
9824;DHT22;4951;50.778;7.196;2023-09-19T04:01:14;14.50;99.90
9824;DHT22;4951;50.778;7.196;2023-09-19T04:03:43;14.50;99.90
9824;DHT22;4951;50.778;7.196;2023-09-19T04:06:14;14.50;99.90
9824;DHT22;4951;50.778;7.196;2023-09-19T04:08:45;14.40;99.90
9824;DHT22;4951;50.778;7.196;2023-09-19T04:11:15;14.30;99.90
9824;DHT22;4951;50.778;7.196;2023-09-19T04:13:49;14.30;99.90
9824;DHT22;4951;50.778;7.196;2023-09-19T04:16:17;14.20;1.00
9824;DHT22;4951;50.778;7.196;2023-09-19T04:18:45;14.20;1.00
9824;DHT22;4951;50.778;7.196;2023-09-19T04:21:16;14.20;1.00
9824;DHT22;4951;50.778;7.196;2023-09-19T04:23:46;14.10;1.00
9824;DHT22;4951;50.778;7.196;2023-09-19T04:26:16;14.10;1.00
9824;DHT22;4951;50.778;7.196;2023-09-19T04:28:53;14.10;1.00
9824;DHT22;4951;50.778;7.196;2023-09-19T04:31:22;14.10;1.00
9824;DHT22;4951;50.778;7.196;2023-09-19T04:33:52;14.10;1.00
9824;DHT22;4951;50.778;7.196;2023-09-19T04:36:21;14.00;1.00
9824;DHT22;4951;50.778;7.196;2023-09-19T04:38:48;14.00;1.00
9824;DHT22;4951;50.778;7.196;2023-09-19T04:41:17;14.00;1.00
9824;DHT22;4951;50.778;7.196;2023-09-19T04:43:55;14.00;1.00
9824;DHT22;4951;50.778;7.196;2023-09-19T04:46:41;14.00;1.00
9824;DHT22;4951;50.778;7.196;2023-09-19T04:49:10;14.00;1.00
9824;DHT22;4951;50.778;7.196;2023-09-19T04:51:38;14.00;1.00
9824;DHT22;4951;50.778;7.196;2023-09-19T04:54:17;14.00;1.00
9824;DHT22;4951;50.778;7.196;2023-09-19T04:56:49;14.00;1.00
9824;DHT22;4951;50.778;7.196;2023-09-19T04:59:20;14.00;1.00
9824;DHT22;4951;50.778;7.196;2023-09-19T05:01:48;14.00;1.00
9824;DHT22;4951;50.778;7.196;2023-09-19T05:04:23;14.00;1.00
9824;DHT22;4951;50.778;7.196;2023-09-19T05:06:52;14.00;1.00
9824;DHT22;4951;50.778;7.196;2023-09-19T05:09:21;14.00;1.00
9824;DHT22;4951;50.778;7.196;2023-09-19T05:11:49;14.00;1.00
9824;DHT22;4951;50.778;7.196;2023-09-19T05:14:24;14.00;1.00
9824;DHT22;4951;50.778;7.196;2023-09-19T05:16:55;14.00;1.00
9824;DHT22;4951;50.778;7.196;2023-09-19T05:19:23;14.00;1.00
9824;DHT22;4951;50.778;7.196;2023-09-19T05:21:51;14.00;1.00
9824;DHT22;4951;50.778;7.196;2023-09-19T05:24:20;13.90;1.00
9824;DHT22;4951;50.778;7.196;2023-09-19T05:26:49;13.90;1.00
9824;DHT22;4951;50.778;7.196;2023-09-19T05:29:16;13.90;1.00
9824;DHT22;4951;50.778;7.196;2023-09-19T05:31:47;13.90;1.00
9824;DHT22;4951;50.778;7.196;2023-09-19T05:34:15;13.90;1.00
9824;DHT22;4951;50.778;7.196;2023-09-19T05:36:44;13.90;1.00
9824;DHT22;4951;50.778;7.196;2023-09-19T05:39:14;13.90;1.00
9824;DHT22;4951;50.778;7.196;2023-09-19T05:41:42;13.90;1.00
9824;DHT22;4951;50.778;7.196;2023-09-19T05:44:11;13.90;1.00
9824;DHT22;4951;50.778;7.196;2023-09-19T05:46:38;13.90;1.00
9824;DHT22;4951;50.778;7.196;2023-09-19T05:49:07;13.90;1.00
9824;DHT22;4951;50.778;7.196;2023-09-19T05:51:36;13.90;1.00
9824;DHT22;4951;50.778;7.196;2023-09-19T05:54:05;13.90;1.00
9824;DHT22;4951;50.778;7.196;2023-09-19T05:56:35;13.90;1.00
9824;DHT22;4951;50.778;7.196;2023-09-19T05:59:11;13.90;1.00
9824;DHT22;4951;50.778;7.196;2023-09-19T06:01:42;13.90;1.00
9824;DHT22;4951;50.778;7.196;2023-09-19T06:04:24;14.00;1.00
9824;DHT22;4951;50.778;7.196;2023-09-19T06:06:52;14.00;1.00
9824;DHT22;4951;50.778;7.196;2023-09-19T06:09:23;14.00;1.00
9824;DHT22;4951;50.778;7.196;2023-09-19T06:11:53;14.00;1.00
9824;DHT22;4951;50.778;7.196;2023-09-19T06:14:39;14.00;1.00
9824;DHT22;4951;50.778;7.196;2023-09-19T06:17:08;14.10;1.00
9824;DHT22;4951;50.778;7.196;2023-09-19T06:19:37;14.10;1.00
9824;DHT22;4951;50.778;7.196;2023-09-19T06:22:05;14.20;1.00
9824;DHT22;4951;50.778;7.196;2023-09-19T06:24:34;14.20;1.00
9824;DHT22;4951;50.778;7.196;2023-09-19T06:27:04;14.20;1.00
9824;DHT22;4951;50.778;7.196;2023-09-19T06:29:37;14.30;99.90
9824;DHT22;4951;50.778;7.196;2023-09-19T06:32:07;14.30;99.90
9824;DHT22;4951;50.778;7.196;2023-09-19T06:34:37;14.40;99.90
9824;DHT22;4951;50.778;7.196;2023-09-19T06:37:10;14.40;99.90
9824;DHT22;4951;50.778;7.196;2023-09-19T06:39:39;14.40;99.90
9824;DHT22;4951;50.778;7.196;2023-09-19T06:42:08;14.50;99.90
9824;DHT22;4951;50.778;7.196;2023-09-19T06:44:36;14.50;99.90
9824;DHT22;4951;50.778;7.196;2023-09-19T06:47:06;14.50;99.90
9824;DHT22;4951;50.778;7.196;2023-09-19T06:49:34;14.50;99.90
9824;DHT22;4951;50.778;7.196;2023-09-19T06:52:07;14.50;99.90
9824;DHT22;4951;50.778;7.196;2023-09-19T06:54:40;14.60;99.90
9824;DHT22;4951;50.778;7.196;2023-09-19T06:57:11;14.70;99.90
9824;DHT22;4951;50.778;7.196;2023-09-19T06:59:40;14.70;99.90
9824;DHT22;4951;50.778;7.196;2023-09-19T07:02:09;14.70;36.80
9824;DHT22;4951;50.778;7.196;2023-09-19T07:04:38;14.80;1.00
9824;DHT22;4951;50.778;7.196;2023-09-19T07:07:10;14.80;1.00
9824;DHT22;4951;50.778;7.196;2023-09-19T07:09:40;14.90;1.00
9824;DHT22;4951;50.778;7.196;2023-09-19T07:12:08;15.00;1.00
9824;DHT22;4951;50.778;7.196;2023-09-19T07:14:36;15.10;1.00
9824;DHT22;4951;50.778;7.196;2023-09-19T07:17:04;15.10;1.00
9824;DHT22;4951;50.778;7.196;2023-09-19T07:19:33;15.20;1.00
9824;DHT22;4951;50.778;7.196;2023-09-19T07:22:02;15.20;1.00
9824;DHT22;4951;50.778;7.196;2023-09-19T07:24:32;15.30;1.00
9824;DHT22;4951;50.778;7.196;2023-09-19T07:27:02;15.30;1.00
9824;DHT22;4951;50.778;7.196;2023-09-19T07:29:33;15.40;1.00
9824;DHT22;4951;50.778;7.196;2023-09-19T07:32:05;15.40;1.00
9824;DHT22;4951;50.778;7.196;2023-09-19T07:34:37;15.50;1.00
9824;DHT22;4951;50.778;7.196;2023-09-19T07:37:07;15.50;1.00
9824;DHT22;4951;50.778;7.196;2023-09-19T07:39:37;15.60;1.00
9824;DHT22;4951;50.778;7.196;2023-09-19T07:42:07;15.70;66.30
9824;DHT22;4951;50.778;7.196;2023-09-19T07:44:37;15.70;99.90
9824;DHT22;4951;50.778;7.196;2023-09-19T07:47:06;15.80;1.00
9824;DHT22;4951;50.778;7.196;2023-09-19T07:49:33;15.80;1.00
9824;DHT22;4951;50.778;7.196;2023-09-19T07:52:09;15.90;1.00
9824;DHT22;4951;50.778;7.196;2023-09-19T07:54:39;15.90;1.00
9824;DHT22;4951;50.778;7.196;2023-09-19T07:57:07;16.00;1.00
9824;DHT22;4951;50.778;7.196;2023-09-19T07:59:38;16.00;1.00
9824;DHT22;4951;50.778;7.196;2023-09-19T08:02:08;16.10;1.00
9824;DHT22;4951;50.778;7.196;2023-09-19T08:04:41;16.10;1.00
9824;DHT22;4951;50.778;7.196;2023-09-19T08:07:09;16.20;1.00
9824;DHT22;4951;50.778;7.196;2023-09-19T08:09:40;16.30;1.00
9824;DHT22;4951;50.778;7.196;2023-09-19T08:12:08;16.40;99.90
9824;DHT22;4951;50.778;7.196;2023-09-19T08:14:38;16.40;99.90
9824;DHT22;4951;50.778;7.196;2023-09-19T08:17:13;16.50;99.90
9824;DHT22;4951;50.778;7.196;2023-09-19T08:19:42;16.60;1.00
9824;DHT22;4951;50.778;7.196;2023-09-19T08:22:12;16.70;99.90
9824;DHT22;4951;50.778;7.196;2023-09-19T08:24:42;16.70;1.00
9824;DHT22;4951;50.778;7.196;2023-09-19T08:27:10;16.80;1.00
9824;DHT22;4951;50.778;7.196;2023-09-19T08:29:38;16.80;1.00
9824;DHT22;4951;50.778;7.196;2023-09-19T08:32:08;16.80;99.90
9824;DHT22;4951;50.778;7.196;2023-09-19T08:34:42;17.00;99.90
9824;DHT22;4951;50.778;7.196;2023-09-19T08:37:10;17.00;99.90
9824;DHT22;4951;50.778;7.196;2023-09-19T08:39:39;17.10;99.90
9824;DHT22;4951;50.778;7.196;2023-09-19T08:42:09;17.20;99.90
9824;DHT22;4951;50.778;7.196;2023-09-19T08:44:39;17.30;1.00
9824;DHT22;4951;50.778;7.196;2023-09-19T08:47:10;17.30;1.00
9824;DHT22;4951;50.778;7.196;2023-09-19T08:52:36;17.40;99.90
9824;DHT22;4951;50.778;7.196;2023-09-19T08:55:09;17.50;1.00
9824;DHT22;4951;50.778;7.196;2023-09-19T08:57:42;17.50;1.00
9824;DHT22;4951;50.778;7.196;2023-09-19T09:00:12;17.60;1.00
9824;DHT22;4951;50.778;7.196;2023-09-19T09:02:44;17.60;1.00
9824;DHT22;4951;50.778;7.196;2023-09-19T09:05:13;17.60;1.00
9824;DHT22;4951;50.778;7.196;2023-09-19T09:07:42;17.70;1.00
9824;DHT22;4951;50.778;7.196;2023-09-19T09:10:10;17.70;1.00
9824;DHT22;4951;50.778;7.196;2023-09-19T09:12:45;17.80;1.00
9824;DHT22;4951;50.778;7.196;2023-09-19T09:15:13;17.80;1.00
9824;DHT22;4951;50.778;7.196;2023-09-19T09:17:46;17.80;99.90
9824;DHT22;4951;50.778;7.196;2023-09-19T09:20:16;17.90;1.00
9824;DHT22;4951;50.778;7.196;2023-09-19T09:22:51;18.00;1.00
9824;DHT22;4951;50.778;7.196;2023-09-19T09:25:21;18.10;1.00
9824;DHT22;4951;50.778;7.196;2023-09-19T09:28:01;18.10;21.50
9824;DHT22;4951;50.778;7.196;2023-09-19T09:30:35;18.20;99.90
9824;DHT22;4951;50.778;7.196;2023-09-19T09:33:10;18.30;47.30
9824;DHT22;4951;50.778;7.196;2023-09-19T09:35:51;18.20;1.00
9824;DHT22;4951;50.778;7.196;2023-09-19T09:38:25;18.20;1.00
9824;DHT22;4951;50.778;7.196;2023-09-19T09:40:54;18.20;1.00
9824;DHT22;4951;50.778;7.196;2023-09-19T09:43:34;18.20;1.00
9824;DHT22;4951;50.778;7.196;2023-09-19T09:46:11;18.20;1.00
9824;DHT22;4951;50.778;7.196;2023-09-19T09:49:11;18.20;1.00
9824;DHT22;4951;50.778;7.196;2023-09-19T09:51:43;18.30;1.00
9824;DHT22;4951;50.778;7.196;2023-09-19T09:54:14;18.40;1.00
9824;DHT22;4951;50.778;7.196;2023-09-19T09:56:56;18.40;1.00
9824;DHT22;4951;50.778;7.196;2023-09-19T09:59:47;18.40;1.00
9824;DHT22;4951;50.778;7.196;2023-09-19T10:02:17;18.50;1.00
9824;DHT22;4951;50.778;7.196;2023-09-19T10:04:52;18.60;1.00
9824;DHT22;4951;50.778;7.196;2023-09-19T10:07:34;18.70;1.00
9824;DHT22;4951;50.778;7.196;2023-09-19T10:10:07;18.90;1.00
9824;DHT22;4951;50.778;7.196;2023-09-19T10:12:43;19.10;99.90
9824;DHT22;4951;50.778;7.196;2023-09-19T10:15:17;19.20;99.90
9824;DHT22;4951;50.778;7.196;2023-09-19T10:17:47;19.20;99.90
9824;DHT22;4951;50.778;7.196;2023-09-19T10:20:16;19.30;99.90
9824;DHT22;4951;50.778;7.196;2023-09-19T10:23:07;19.30;99.90
9824;DHT22;4951;50.778;7.196;2023-09-19T10:25:39;19.30;99.90
9824;DHT22;4951;50.778;7.196;2023-09-19T10:28:11;19.30;99.90
9824;DHT22;4951;50.778;7.196;2023-09-19T10:30:44;19.30;99.90
9824;DHT22;4951;50.778;7.196;2023-09-19T10:33:14;19.40;97.00
9824;DHT22;4951;50.778;7.196;2023-09-19T10:35:45;19.40;51.70
9824;DHT22;4951;50.778;7.196;2023-09-19T10:38:14;19.40;38.00
9824;DHT22;4951;50.778;7.196;2023-09-19T10:40:42;19.50;1.00
9824;DHT22;4951;50.778;7.196;2023-09-19T10:43:16;19.50;1.00
9824;DHT22;4951;50.778;7.196;2023-09-19T10:45:48;19.50;1.00
9824;DHT22;4951;50.778;7.196;2023-09-19T10:48:16;19.50;1.00
9824;DHT22;4951;50.778;7.196;2023-09-19T10:50:48;19.70;1.00
9824;DHT22;4951;50.778;7.196;2023-09-19T10:53:19;19.70;1.00
9824;DHT22;4951;50.778;7.196;2023-09-19T10:55:52;19.80;1.00
9824;DHT22;4951;50.778;7.196;2023-09-19T10:58:27;19.80;1.00
9824;DHT22;4951;50.778;7.196;2023-09-19T11:00:58;19.90;1.00
9824;DHT22;4951;50.778;7.196;2023-09-19T11:03:38;19.90;1.00
9824;DHT22;4951;50.778;7.196;2023-09-19T11:06:11;19.90;1.00
9824;DHT22;4951;50.778;7.196;2023-09-19T11:08:58;20.00;1.00
9824;DHT22;4951;50.778;7.196;2023-09-19T11:11:44;20.00;1.00
9824;DHT22;4951;50.778;7.196;2023-09-19T11:14:41;19.90;1.00
9824;DHT22;4951;50.778;7.196;2023-09-19T11:17:32;19.90;1.00
9824;DHT22;4951;50.778;7.196;2023-09-19T11:20:19;19.90;1.00
9824;DHT22;4951;50.778;7.196;2023-09-19T11:23:17;19.80;1.00
9824;DHT22;4951;50.778;7.196;2023-09-19T11:25:49;19.70;1.00
9824;DHT22;4951;50.778;7.196;2023-09-19T11:28:32;19.70;1.00
9824;DHT22;4951;50.778;7.196;2023-09-19T11:34:45;19.70;1.00
9824;DHT22;4951;50.778;7.196;2023-09-19T11:40:44;20.10;1.00
9824;DHT22;4951;50.778;7.196;2023-09-19T11:43:31;20.40;1.00
9824;DHT22;4951;50.778;7.196;2023-09-19T11:46:06;20.50;1.00
9824;DHT22;4951;50.778;7.196;2023-09-19T11:48:41;20.50;1.00
9824;DHT22;4951;50.778;7.196;2023-09-19T11:51:26;20.30;1.00
9824;DHT22;4951;50.778;7.196;2023-09-19T11:53:57;20.30;1.00
9824;DHT22;4951;50.778;7.196;2023-09-19T11:56:26;20.30;1.00
9824;DHT22;4951;50.778;7.196;2023-09-19T11:58:55;20.40;1.00
9824;DHT22;4951;50.778;7.196;2023-09-19T12:01:25;20.50;1.00
9824;DHT22;4951;50.778;7.196;2023-09-19T12:03:56;20.50;1.00
9824;DHT22;4951;50.778;7.196;2023-09-19T12:06:27;20.50;1.00
9824;DHT22;4951;50.778;7.196;2023-09-19T12:08:55;20.60;1.00
9824;DHT22;4951;50.778;7.196;2023-09-19T12:11:27;20.80;1.00
9824;DHT22;4951;50.778;7.196;2023-09-19T12:13:55;20.90;1.00
9824;DHT22;4951;50.778;7.196;2023-09-19T12:16:26;20.80;1.00
9824;DHT22;4951;50.778;7.196;2023-09-19T12:18:58;20.70;1.00
9824;DHT22;4951;50.778;7.196;2023-09-19T12:21:54;20.60;1.00
9824;DHT22;4951;50.778;7.196;2023-09-19T12:24:26;20.70;1.00
9824;DHT22;4951;50.778;7.196;2023-09-19T12:27:01;20.70;1.00
9824;DHT22;4951;50.778;7.196;2023-09-19T12:29:41;20.80;1.00
9824;DHT22;4951;50.778;7.196;2023-09-19T12:32:10;20.80;1.00
9824;DHT22;4951;50.778;7.196;2023-09-19T12:34:38;20.90;1.00
9824;DHT22;4951;50.778;7.196;2023-09-19T12:37:15;20.90;1.00
9824;DHT22;4951;50.778;7.196;2023-09-19T12:39:50;21.00;1.00
9824;DHT22;4951;50.778;7.196;2023-09-19T12:42:20;21.00;1.00
9824;DHT22;4951;50.778;7.196;2023-09-19T12:44:50;21.00;1.00
9824;DHT22;4951;50.778;7.196;2023-09-19T12:47:21;21.20;1.00
9824;DHT22;4951;50.778;7.196;2023-09-19T12:50:08;21.20;1.00
9824;DHT22;4951;50.778;7.196;2023-09-19T12:52:43;21.20;1.00
9824;DHT22;4951;50.778;7.196;2023-09-19T12:55:26;21.30;1.00
9824;DHT22;4951;50.778;7.196;2023-09-19T12:58:07;21.40;1.00
9824;DHT22;4951;50.778;7.196;2023-09-19T13:00:37;21.50;1.00
9824;DHT22;4951;50.778;7.196;2023-09-19T13:03:25;21.70;99.90
9824;DHT22;4951;50.778;7.196;2023-09-19T13:05:57;21.70;99.90
9824;DHT22;4951;50.778;7.196;2023-09-19T13:08:31;21.90;99.90
9824;DHT22;4951;50.778;7.196;2023-09-19T13:11:01;22.10;99.90
9824;DHT22;4951;50.778;7.196;2023-09-19T13:13:28;22.20;99.90
9824;DHT22;4951;50.778;7.196;2023-09-19T13:16:00;22.30;99.90
9824;DHT22;4951;50.778;7.196;2023-09-19T13:18:28;22.50;99.90
9824;DHT22;4951;50.778;7.196;2023-09-19T13:21:08;22.80;99.90
9824;DHT22;4951;50.778;7.196;2023-09-19T13:23:40;23.30;99.90
9824;DHT22;4951;50.778;7.196;2023-09-19T13:26:07;23.80;99.90
9824;DHT22;4951;50.778;7.196;2023-09-19T13:28:37;24.20;99.90
9824;DHT22;4951;50.778;7.196;2023-09-19T13:31:06;24.50;99.90
9824;DHT22;4951;50.778;7.196;2023-09-19T13:33:42;24.60;99.90
9824;DHT22;4951;50.778;7.196;2023-09-19T13:36:09;24.70;99.90
9824;DHT22;4951;50.778;7.196;2023-09-19T13:38:39;24.50;99.90
9824;DHT22;4951;50.778;7.196;2023-09-19T13:41:13;24.40;99.90
9824;DHT22;4951;50.778;7.196;2023-09-19T13:43:40;24.60;99.90
9824;DHT22;4951;50.778;7.196;2023-09-19T13:46:15;24.60;99.90
9824;DHT22;4951;50.778;7.196;2023-09-19T13:48:45;24.60;99.90
9824;DHT22;4951;50.778;7.196;2023-09-19T13:51:14;24.50;99.90
9824;DHT22;4951;50.778;7.196;2023-09-19T13:53:45;24.40;99.90
9824;DHT22;4951;50.778;7.196;2023-09-19T13:56:13;24.30;99.90
9824;DHT22;4951;50.778;7.196;2023-09-19T13:58:41;24.40;99.90
9824;DHT22;4951;50.778;7.196;2023-09-19T14:01:08;24.80;99.90
9824;DHT22;4951;50.778;7.196;2023-09-19T14:03:39;25.10;99.90
9824;DHT22;4951;50.778;7.196;2023-09-19T14:06:09;25.40;99.90
9824;DHT22;4951;50.778;7.196;2023-09-19T14:08:36;25.60;99.90
9824;DHT22;4951;50.778;7.196;2023-09-19T14:11:07;26.00;99.90
9824;DHT22;4951;50.778;7.196;2023-09-19T14:13:36;26.10;99.90
9824;DHT22;4951;50.778;7.196;2023-09-19T14:16:04;26.10;99.90
9824;DHT22;4951;50.778;7.196;2023-09-19T14:18:33;25.70;99.90
9824;DHT22;4951;50.778;7.196;2023-09-19T14:21:03;25.20;99.90
9824;DHT22;4951;50.778;7.196;2023-09-19T14:23:35;25.00;99.90
9824;DHT22;4951;50.778;7.196;2023-09-19T14:26:18;25.10;99.90
9824;DHT22;4951;50.778;7.196;2023-09-19T14:28:46;25.20;99.90
9824;DHT22;4951;50.778;7.196;2023-09-19T14:31:13;25.40;99.90
9824;DHT22;4951;50.778;7.196;2023-09-19T14:33:41;25.50;99.90
9824;DHT22;4951;50.778;7.196;2023-09-19T14:36:10;25.50;99.90
9824;DHT22;4951;50.778;7.196;2023-09-19T14:38:39;25.30;99.90
9824;DHT22;4951;50.778;7.196;2023-09-19T14:41:07;24.60;99.90
9824;DHT22;4951;50.778;7.196;2023-09-19T14:43:37;24.00;99.90
9824;DHT22;4951;50.778;7.196;2023-09-19T14:46:05;23.80;99.90
9824;DHT22;4951;50.778;7.196;2023-09-19T14:48:36;23.80;99.90
9824;DHT22;4951;50.778;7.196;2023-09-19T14:51:04;23.70;99.90
9824;DHT22;4951;50.778;7.196;2023-09-19T14:53:34;23.60;99.90
9824;DHT22;4951;50.778;7.196;2023-09-19T14:56:04;23.40;99.90
9824;DHT22;4951;50.778;7.196;2023-09-19T14:58:31;23.50;99.90
9824;DHT22;4951;50.778;7.196;2023-09-19T15:01:07;23.70;99.90
9824;DHT22;4951;50.778;7.196;2023-09-19T15:03:37;23.60;99.90
9824;DHT22;4951;50.778;7.196;2023-09-19T15:06:06;23.30;99.90
9824;DHT22;4951;50.778;7.196;2023-09-19T15:08:36;23.10;99.90
9824;DHT22;4951;50.778;7.196;2023-09-19T15:11:04;22.80;99.90
9824;DHT22;4951;50.778;7.196;2023-09-19T15:13:33;22.60;99.90
9824;DHT22;4951;50.778;7.196;2023-09-19T15:16:00;22.40;99.90
9824;DHT22;4951;50.778;7.196;2023-09-19T15:18:33;22.40;99.90
9824;DHT22;4951;50.778;7.196;2023-09-19T15:21:03;22.50;99.90
9824;DHT22;4951;50.778;7.196;2023-09-19T15:23:31;22.40;99.90
9824;DHT22;4951;50.778;7.196;2023-09-19T15:26:00;22.20;99.90
9824;DHT22;4951;50.778;7.196;2023-09-19T15:28:29;22.00;99.90
9824;DHT22;4951;50.778;7.196;2023-09-19T15:30:59;21.90;99.90
9824;DHT22;4951;50.778;7.196;2023-09-19T15:33:28;21.80;99.90
9824;DHT22;4951;50.778;7.196;2023-09-19T15:36:06;21.70;99.90
9824;DHT22;4951;50.778;7.196;2023-09-19T15:38:55;21.60;99.90
9824;DHT22;4951;50.778;7.196;2023-09-19T15:41:24;21.50;99.90
9824;DHT22;4951;50.778;7.196;2023-09-19T15:43:53;21.50;99.90
9824;DHT22;4951;50.778;7.196;2023-09-19T15:46:21;21.40;99.90
9824;DHT22;4951;50.778;7.196;2023-09-19T15:48:49;21.30;99.90
9824;DHT22;4951;50.778;7.196;2023-09-19T15:51:18;21.30;99.90
9824;DHT22;4951;50.778;7.196;2023-09-19T15:53:47;21.20;99.90
9824;DHT22;4951;50.778;7.196;2023-09-19T15:56:16;21.10;99.90
9824;DHT22;4951;50.778;7.196;2023-09-19T15:58:48;21.10;99.90
9824;DHT22;4951;50.778;7.196;2023-09-19T16:01:18;21.00;99.90
9824;DHT22;4951;50.778;7.196;2023-09-19T16:03:47;21.00;99.90
9824;DHT22;4951;50.778;7.196;2023-09-19T16:06:15;21.00;99.90
9824;DHT22;4951;50.778;7.196;2023-09-19T16:08:47;21.00;99.90
9824;DHT22;4951;50.778;7.196;2023-09-19T16:11:15;21.00;99.90
9824;DHT22;4951;50.778;7.196;2023-09-19T16:13:43;21.00;99.90
9824;DHT22;4951;50.778;7.196;2023-09-19T16:16:12;20.90;99.90
9824;DHT22;4951;50.778;7.196;2023-09-19T16:18:45;20.80;99.90
9824;DHT22;4951;50.778;7.196;2023-09-19T16:21:14;20.80;99.90
9824;DHT22;4951;50.778;7.196;2023-09-19T16:23:46;20.80;99.90
9824;DHT22;4951;50.778;7.196;2023-09-19T16:26:17;20.70;99.90
9824;DHT22;4951;50.778;7.196;2023-09-19T16:28:47;20.60;99.90
9824;DHT22;4951;50.778;7.196;2023-09-19T16:31:16;20.60;99.90
9824;DHT22;4951;50.778;7.196;2023-09-19T16:33:46;20.60;99.90
9824;DHT22;4951;50.778;7.196;2023-09-19T16:36:18;20.50;99.90
9824;DHT22;4951;50.778;7.196;2023-09-19T16:38:48;20.50;99.90
9824;DHT22;4951;50.778;7.196;2023-09-19T16:41:16;20.50;99.90
9824;DHT22;4951;50.778;7.196;2023-09-19T16:43:45;20.40;99.90
9824;DHT22;4951;50.778;7.196;2023-09-19T16:46:14;20.40;99.90
9824;DHT22;4951;50.778;7.196;2023-09-19T16:48:44;20.40;99.90
9824;DHT22;4951;50.778;7.196;2023-09-19T16:51:13;20.40;99.90
9824;DHT22;4951;50.778;7.196;2023-09-19T16:53:42;20.30;99.90